createdAt,value
2022-08-05T00:00:53.486Z,2.05
2022-08-05T00:03:19.946Z,2.45
2022-08-05T00:06:06.562Z,2.10
2022-08-05T00:08:52.236Z,2.28
2022-08-05T00:11:49.436Z,2.07
2022-08-05T00:14:22.594Z,1.38
2022-08-05T00:16:55.427Z,2.10
2022-08-05T00:19:33.831Z,2.05
2022-08-05T00:22:42.439Z,1.70
2022-08-05T00:25:45.407Z,1.67
2022-08-05T00:28:16.060Z,1.83
2022-08-05T00:31:53.912Z,2.20
2022-08-05T00:34:53.546Z,2.13
2022-08-05T00:37:14.473Z,2.40
2022-08-05T00:39:59.293Z,1.83
2022-08-05T00:42:37.398Z,1.80
2022-08-05T00:45:08.802Z,2.05
2022-08-05T00:47:56.834Z,1.73
2022-08-05T00:50:54.371Z,1.60
2022-08-05T00:54:00.195Z,2.40
2022-08-05T00:56:22.939Z,1.77
2022-08-05T00:59:19.156Z,2.17
2022-08-05T01:01:52.553Z,1.90
2022-08-05T01:04:20.167Z,2.00
2022-08-05T01:07:07.780Z,2.10
2022-08-05T01:09:46.929Z,1.67
2022-08-05T01:12:35.290Z,2.20
2022-08-05T01:15:06.117Z,1.25
2022-08-05T01:17:58.098Z,1.90
2022-08-05T01:20:54.066Z,1.70
2022-08-05T01:23:26.398Z,1.73
2022-08-05T01:26:56.360Z,1.85
2022-08-05T01:29:38.847Z,1.67
2022-08-05T01:32:12.411Z,2.03
2022-08-05T01:34:54.645Z,1.40
2022-08-05T01:38:26.939Z,1.63
2022-08-05T01:41:01.645Z,1.83
2022-08-05T01:43:36.516Z,1.48
2022-08-05T01:46:16.276Z,1.65
2022-08-05T01:48:49.806Z,1.27
2022-08-05T01:51:18.239Z,1.33
2022-08-05T01:53:57.273Z,1.60
2022-08-05T01:58:10.553Z,1.63
2022-08-05T01:59:40.509Z,1.55
2022-08-05T02:02:14.062Z,1.40
2022-08-05T02:04:54.853Z,1.63
2022-08-05T02:08:01.260Z,1.70
2022-08-05T02:10:41.695Z,1.27
2022-08-05T02:13:17.233Z,1.55
2022-08-05T02:15:56.262Z,2.03
2022-08-05T02:19:09.861Z,1.77
2022-08-05T02:21:46.794Z,1.45
2022-08-05T02:24:25.953Z,1.40
2022-08-05T02:27:00.081Z,1.67
2022-08-05T02:29:59.136Z,1.23
2022-08-05T02:32:39.116Z,1.27
2022-08-05T02:35:28.132Z,1.60
2022-08-05T02:38:15.415Z,1.63
2022-08-05T02:40:53.440Z,1.80
2022-08-05T02:43:24.654Z,1.70
2022-08-05T02:45:54.085Z,1.75
2022-08-05T02:48:29.410Z,1.83
2022-08-05T02:52:04.119Z,1.90
2022-08-05T02:54:36.108Z,1.60
2022-08-05T02:58:19.949Z,1.67
2022-08-05T02:59:57.825Z,1.85
2022-08-05T03:02:33.923Z,1.70
2022-08-05T03:05:01.966Z,1.88
2022-08-05T03:08:00.505Z,1.77
2022-08-05T03:10:22.080Z,1.33
2022-08-05T03:12:55.267Z,1.73
2022-08-05T03:15:24.814Z,2.10
2022-08-05T03:17:55.804Z,1.27
2022-08-05T03:20:23.663Z,1.88
2022-08-05T03:23:34.952Z,1.97
2022-08-05T03:26:31.627Z,1.70
2022-08-05T03:28:59.417Z,2.00
2022-08-05T03:31:56.854Z,1.48
2022-08-05T03:38:00.958Z,2.03
2022-08-05T03:40:32.012Z,2.90
2022-08-05T03:43:59.309Z,2.20
2022-08-05T03:46:16.637Z,2.60
2022-08-05T03:48:45.394Z,1.90
2022-08-05T03:52:37.866Z,1.83
2022-08-05T03:55:00.074Z,2.10
2022-08-05T03:57:41.636Z,1.73
2022-08-05T04:01:05.324Z,2.40
2022-08-05T04:03:56.936Z,2.08
2022-08-05T04:06:47.352Z,2.03
2022-08-05T04:09:25.873Z,1.77
2022-08-05T04:12:02.753Z,2.28
2022-08-05T04:14:31.855Z,1.75
2022-08-05T04:17:03.073Z,2.08
2022-08-05T04:19:30.749Z,2.00
2022-08-05T04:22:10.248Z,2.05
2022-08-05T04:25:14.169Z,2.08
2022-08-05T04:27:58.942Z,2.55
2022-08-05T04:30:31.401Z,2.47
2022-08-05T04:32:58.201Z,2.13
2022-08-05T04:36:16.570Z,1.83
2022-08-05T04:38:39.691Z,1.83
2022-08-05T04:41:21.004Z,2.33
2022-08-05T04:44:00.792Z,1.88
2022-08-05T04:46:36.168Z,2.20
2022-08-05T04:49:38.767Z,2.17
2022-08-05T04:52:12.193Z,2.10
2022-08-05T04:54:38.693Z,2.00
2022-08-05T04:57:05.374Z,2.00
2022-08-05T04:59:38.628Z,2.07
2022-08-05T05:02:37.169Z,1.90
2022-08-05T05:05:02.307Z,2.08
2022-08-05T05:07:35.297Z,2.08
2022-08-05T05:10:05.394Z,2.40
2022-08-05T05:12:33.364Z,1.87
2022-08-05T05:15:10.797Z,1.95
2022-08-05T05:17:55.822Z,2.53
2022-08-05T05:20:32.664Z,1.73
2022-08-05T05:23:08.064Z,2.47
2022-08-05T05:25:58.226Z,1.97
2022-08-05T05:28:38.974Z,2.03
2022-08-05T05:31:15.655Z,2.00
2022-08-05T05:33:59.311Z,1.90
2022-08-05T05:36:28.551Z,2.05
2022-08-05T05:38:58.337Z,1.47
2022-08-05T05:41:40.832Z,1.85
2022-08-05T05:44:37.636Z,2.03
2022-08-05T05:47:21.293Z,1.60
2022-08-05T05:50:01.550Z,2.10
2022-08-05T05:52:32.931Z,1.53
2022-08-05T05:56:00.776Z,1.63
2022-08-05T05:58:31.639Z,1.80
2022-08-05T06:01:04.940Z,1.70
2022-08-05T06:03:54.172Z,1.85
2022-08-05T06:06:38.230Z,1.87
2022-08-05T06:09:08.514Z,1.90
2022-08-05T06:11:39.324Z,1.40
2022-08-05T06:14:34.978Z,1.58
2022-08-05T06:17:24.326Z,1.58
2022-08-05T06:19:56.861Z,1.07
2022-08-05T06:22:34.424Z,1.27
2022-08-05T06:25:24.934Z,1.50
2022-08-05T06:28:10.782Z,1.25
2022-08-05T06:30:34.984Z,1.58
2022-08-05T06:33:02.315Z,1.40
2022-08-05T06:36:07.113Z,1.30
2022-08-05T06:38:46.904Z,1.30
2022-08-05T06:41:26.475Z,1.77
2022-08-05T06:44:00.213Z,1.17
2022-08-05T06:46:29.703Z,1.20
2022-08-05T06:48:58.903Z,1.17
2022-08-05T06:51:29.763Z,1.48
2022-08-05T06:54:01.891Z,1.10
2022-08-05T06:56:30.180Z,1.30
2022-08-05T06:59:00.446Z,1.27
2022-08-05T07:01:27.700Z,1.20
2022-08-05T07:04:02.453Z,1.17
2022-08-05T07:06:31.917Z,0.95
2022-08-05T07:09:05.291Z,1.10
2022-08-05T07:11:36.870Z,1.27
2022-08-05T07:14:29.660Z,1.02
2022-08-05T07:18:00.457Z,1.70
2022-08-05T07:22:43.710Z,1.00
2022-08-05T07:25:54.908Z,1.10
2022-08-05T07:28:07.271Z,0.95
2022-08-05T07:30:39.705Z,0.85
2022-08-05T07:33:16.519Z,1.02
2022-08-05T07:36:20.343Z,0.90
2022-08-05T07:38:49.421Z,1.23
2022-08-05T07:42:12.893Z,0.77
2022-08-05T07:44:14.291Z,1.05
2022-08-05T07:46:49.606Z,0.70
2022-08-05T07:49:34.048Z,0.70
2022-08-05T07:52:10.197Z,1.03
2022-08-05T07:54:41.175Z,0.60
2022-08-05T07:57:58.858Z,0.75
2022-08-05T08:00:14.932Z,0.80
2022-08-05T08:03:13.761Z,0.90
2022-08-05T08:05:39.490Z,0.87
2022-08-05T08:08:21.060Z,0.77
2022-08-05T08:10:49.187Z,0.80
2022-08-05T08:13:22.121Z,0.70
2022-08-05T08:16:35.120Z,0.90
2022-08-05T08:18:42.369Z,0.53
2022-08-05T08:21:21.465Z,0.63
2022-08-05T08:24:02.764Z,0.70
2022-08-05T08:26:31.246Z,0.65
2022-08-05T08:30:03.207Z,0.85
2022-08-05T08:31:52.816Z,0.47
2022-08-05T08:34:30.212Z,0.70
2022-08-05T08:37:01.764Z,0.88
2022-08-05T08:39:49.526Z,0.68
2022-08-05T08:42:33.964Z,0.70
2022-08-05T08:45:40.558Z,0.60
2022-08-05T08:48:22.308Z,0.63
2022-08-05T08:52:01.705Z,0.60
2022-08-05T08:55:00.315Z,0.60
2022-08-05T08:57:41.998Z,0.80
2022-08-05T09:00:15.790Z,0.50
2022-08-05T09:02:46.513Z,0.40
2022-08-05T09:05:38.951Z,0.65
2022-08-05T09:08:14.235Z,0.63
2022-08-05T09:10:54.973Z,0.70
2022-08-05T09:14:09.501Z,0.60
2022-08-05T09:16:28.958Z,0.50
2022-08-05T09:18:55.995Z,0.82
2022-08-05T09:22:22.325Z,0.60
2022-08-05T09:24:19.023Z,0.70
2022-08-05T09:26:56.317Z,0.87
2022-08-05T09:29:47.973Z,0.65
2022-08-05T09:32:46.312Z,0.60
2022-08-05T09:35:27.668Z,0.70
2022-08-05T09:38:11.975Z,0.52
2022-08-05T09:40:52.650Z,0.50
2022-08-05T09:43:40.605Z,0.70
2022-08-05T09:46:51.644Z,0.70
2022-08-05T09:49:54.836Z,0.40
2022-08-05T09:52:29.198Z,0.60
2022-08-05T09:54:57.073Z,0.50
2022-08-05T09:57:49.611Z,0.60
2022-08-05T10:00:26.617Z,0.50
2022-08-05T10:03:11.383Z,0.70
2022-08-05T10:05:46.257Z,0.50
2022-08-05T10:08:37.797Z,1.00
2022-08-05T10:11:43.729Z,0.60
2022-08-05T10:14:33.206Z,0.40
2022-08-05T10:17:37.828Z,1.05
2022-08-05T10:20:10.079Z,0.82
2022-08-05T10:22:51.139Z,0.40
2022-08-05T10:25:19.125Z,0.50
2022-08-05T10:28:16.772Z,0.73
2022-08-05T10:31:19.944Z,0.47
2022-08-05T10:33:24.958Z,0.57
2022-08-05T10:35:59.748Z,0.73
2022-08-05T10:38:28.507Z,0.90
2022-08-05T10:41:26.056Z,0.80
2022-08-05T10:44:30.012Z,0.50
2022-08-05T10:47:26.646Z,0.55
2022-08-05T10:50:32.365Z,0.67
2022-08-05T10:53:01.094Z,0.60
2022-08-05T10:55:28.343Z,0.63
2022-08-05T10:58:11.723Z,0.60
2022-08-05T11:00:47.438Z,0.57
2022-08-05T11:03:24.371Z,0.50
2022-08-05T11:06:04.773Z,0.50
2022-08-05T11:08:37.158Z,0.60
2022-08-05T11:11:51.987Z,0.60
2022-08-05T11:17:59.859Z,0.43
2022-08-05T11:20:32.656Z,0.40
2022-08-05T11:24:05.689Z,0.50
2022-08-05T11:26:28.526Z,0.55
2022-08-05T11:29:28.176Z,0.57
2022-08-05T11:32:26.350Z,0.37
2022-08-05T11:34:54.158Z,0.52
2022-08-05T11:38:26.574Z,0.60
2022-08-05T11:41:36.820Z,0.50
2022-08-05T11:44:40.159Z,0.50
2022-08-05T11:47:15.250Z,0.50
2022-08-05T11:49:49.577Z,0.40
2022-08-05T11:52:29.254Z,1.02
2022-08-05T11:54:58.174Z,0.57
2022-08-05T11:58:10.223Z,0.50
2022-08-05T12:00:32.704Z,0.40
2022-08-05T12:03:31.519Z,0.45
2022-08-05T12:06:20.049Z,0.52
2022-08-05T12:08:57.562Z,0.47
2022-08-05T12:11:28.381Z,0.57
2022-08-05T12:14:17.314Z,0.53
2022-08-05T12:16:47.311Z,0.45
2022-08-05T12:20:26.159Z,0.60
2022-08-05T12:22:29.876Z,0.50
2022-08-05T12:24:58.554Z,0.70
2022-08-05T12:27:32.626Z,0.70
2022-08-05T12:30:06.494Z,0.50
2022-08-05T12:32:51.224Z,0.45
2022-08-05T12:35:21.731Z,0.60
2022-08-05T12:38:18.389Z,0.60
2022-08-05T12:40:49.905Z,0.60
2022-08-05T12:43:20.910Z,0.50
2022-08-05T12:45:55.423Z,0.70
2022-08-05T12:48:32.176Z,0.50
2022-08-05T12:52:11.031Z,2.10
2022-08-05T12:54:14.743Z,0.40
2022-08-05T12:56:51.000Z,0.60
2022-08-05T12:59:21.110Z,0.70
2022-08-05T13:02:15.486Z,0.63
2022-08-05T13:05:14.696Z,0.80
2022-08-05T13:08:04.614Z,0.63
2022-08-05T13:10:50.268Z,0.73
2022-08-05T13:14:06.687Z,0.60
2022-08-05T13:16:15.243Z,0.65
2022-08-05T13:18:51.841Z,0.68
2022-08-05T13:21:48.047Z,0.57
2022-08-05T13:24:14.444Z,0.60
2022-08-05T13:26:54.212Z,0.60
2022-08-05T13:29:37.821Z,0.70
2022-08-05T13:32:05.518Z,0.70
2022-08-05T13:34:32.667Z,0.73
2022-08-05T13:37:00.226Z,0.88
2022-08-05T13:40:16.235Z,0.70
2022-08-05T13:42:16.262Z,0.65
2022-08-05T13:44:45.955Z,0.82
2022-08-05T13:47:36.017Z,0.60
2022-08-05T13:50:04.543Z,0.68
2022-08-05T13:52:32.272Z,0.90
2022-08-05T13:55:02.669Z,0.80
2022-08-05T13:57:50.870Z,0.93
2022-08-05T14:00:19.760Z,0.80
2022-08-05T14:02:57.145Z,0.98
2022-08-05T14:06:24.652Z,0.90
2022-08-05T14:08:32.487Z,0.70
2022-08-05T14:11:22.075Z,0.68
2022-08-05T14:13:48.641Z,0.90
2022-08-05T14:16:21.615Z,0.90
2022-08-05T14:18:48.248Z,0.93
2022-08-05T14:22:06.715Z,0.60
2022-08-05T14:24:02.460Z,0.60
2022-08-05T14:26:38.516Z,0.60
2022-08-05T14:29:16.076Z,0.77
2022-08-05T14:32:02.411Z,0.70
2022-08-05T14:34:35.186Z,0.80
2022-08-05T14:37:13.410Z,0.80
2022-08-05T14:39:49.418Z,0.70
2022-08-05T14:42:26.993Z,0.80
2022-08-05T14:44:53.714Z,1.02
2022-08-05T14:48:03.138Z,0.65
2022-08-05T14:50:19.529Z,1.30
2022-08-05T14:52:58.303Z,1.10
2022-08-05T14:55:38.537Z,1.00
2022-08-05T14:58:21.208Z,1.00
2022-08-05T15:00:59.830Z,0.80
2022-08-05T15:03:33.582Z,1.20
2022-08-05T15:06:08.294Z,1.17
2022-08-05T15:09:01.331Z,1.17
2022-08-05T15:11:53.067Z,1.40
2022-08-05T15:14:34.436Z,0.93
2022-08-05T15:17:04.779Z,1.02
2022-08-05T15:19:39.049Z,1.23
2022-08-05T15:22:05.916Z,0.90
2022-08-05T15:24:33.537Z,0.90
2022-08-05T15:27:36.042Z,0.70
2022-08-05T15:30:03.324Z,1.35
2022-08-05T15:32:29.861Z,1.57
2022-08-05T15:34:58.123Z,1.10
2022-08-05T15:38:34.522Z,0.73
2022-08-05T15:41:01.465Z,0.98
2022-08-05T15:43:12.676Z,1.20
2022-08-05T15:45:46.039Z,0.70
2022-08-05T15:48:26.956Z,1.85
2022-08-05T15:50:53.364Z,1.90
2022-08-05T15:53:22.735Z,1.10
2022-08-05T15:56:01.964Z,1.10
2022-08-05T15:58:35.506Z,1.10
2022-08-05T16:01:17.415Z,0.98
2022-08-05T16:03:48.600Z,0.90
2022-08-05T16:06:19.960Z,1.20
2022-08-05T16:09:07.601Z,1.08
2022-08-05T16:11:40.228Z,1.90
2022-08-05T16:14:09.986Z,1.42
2022-08-05T16:16:44.288Z,1.40
2022-08-05T16:19:25.296Z,1.02
2022-08-05T16:22:02.845Z,1.08
2022-08-05T16:24:41.840Z,1.00
2022-08-05T16:27:47.049Z,1.13
2022-08-05T16:30:25.760Z,1.70
2022-08-05T16:32:53.008Z,1.20
2022-08-05T16:35:19.474Z,0.68
2022-08-05T16:38:18.420Z,1.27
2022-08-05T16:40:55.028Z,1.38
2022-08-05T16:43:25.400Z,1.20
2022-08-05T16:46:04.549Z,1.60
2022-08-05T16:48:39.258Z,1.30
2022-08-05T16:51:09.653Z,1.00
2022-08-05T16:54:06.050Z,0.70
2022-08-05T16:56:29.557Z,2.17
2022-08-05T16:59:07.568Z,1.00
2022-08-05T17:01:52.894Z,1.02
2022-08-05T17:04:21.980Z,1.23
2022-08-05T17:06:53.521Z,1.40
2022-08-05T17:09:20.557Z,2.13
2022-08-05T17:11:48.771Z,1.75
2022-08-05T17:14:34.376Z,0.80
2022-08-05T17:17:03.997Z,0.90
2022-08-05T17:19:31.282Z,1.02
2022-08-05T17:21:58.450Z,1.20
2022-08-05T17:24:35.198Z,1.30
2022-08-05T17:27:10.101Z,0.95
2022-08-05T17:29:41.343Z,0.90
2022-08-05T17:32:17.193Z,1.70
2022-08-05T17:34:49.107Z,1.25
2022-08-05T17:37:41.732Z,1.95
2022-08-05T17:40:10.148Z,1.48
2022-08-05T17:42:41.739Z,1.00
2022-08-05T17:45:21.833Z,1.23
2022-08-05T17:47:55.684Z,1.10
2022-08-05T17:50:30.548Z,1.50
2022-08-05T17:53:02.545Z,1.73
2022-08-05T17:55:39.615Z,1.33
2022-08-05T17:58:09.798Z,1.17
2022-08-05T18:00:39.916Z,1.45
2022-08-05T18:03:11.251Z,1.17
2022-08-05T18:05:39.038Z,1.27
2022-08-05T18:08:13.915Z,0.87
2022-08-05T18:10:40.527Z,0.80
2022-08-05T18:13:12.492Z,1.15
2022-08-05T18:15:39.475Z,1.15
2022-08-05T18:18:11.165Z,1.20
2022-08-05T18:20:43.168Z,1.07
2022-08-05T18:23:13.468Z,1.10
2022-08-05T18:25:44.882Z,1.23
2022-08-05T18:28:16.025Z,0.98
2022-08-05T18:30:49.996Z,1.27
2022-08-05T18:33:22.766Z,0.90
2022-08-05T18:36:03.261Z,0.80
2022-08-05T18:38:36.292Z,0.90
2022-08-05T18:41:56.853Z,1.20
2022-08-05T18:43:53.899Z,1.10
2022-08-05T18:46:21.710Z,0.73
2022-08-05T18:48:53.692Z,0.95
2022-08-05T18:52:04.098Z,0.90
2022-08-05T18:54:31.303Z,0.93
2022-08-05T18:57:02.518Z,0.98
2022-08-05T18:59:43.895Z,0.77
2022-08-05T19:02:26.847Z,1.27
2022-08-05T19:06:06.117Z,1.25
2022-08-05T19:08:12.287Z,1.17
2022-08-05T19:10:45.628Z,0.88
2022-08-05T19:13:25.323Z,0.97
2022-08-05T19:16:03.606Z,1.20
2022-08-05T19:18:31.480Z,1.20
2022-08-05T19:20:59.727Z,0.70
2022-08-05T19:24:05.862Z,0.85
2022-08-05T19:26:21.958Z,0.90
2022-08-05T19:28:59.997Z,0.80
2022-08-05T19:31:33.823Z,1.10
2022-08-05T19:34:11.523Z,1.00
2022-08-05T19:36:48.044Z,0.70
2022-08-05T19:39:22.306Z,0.70
2022-08-05T19:42:06.873Z,0.73
2022-08-05T19:44:44.608Z,0.70
2022-08-05T19:47:11.292Z,0.90
2022-08-05T19:49:41.832Z,0.90
2022-08-05T19:52:31.844Z,0.97
2022-08-05T19:56:13.997Z,0.80
2022-08-05T19:58:28.540Z,1.20
2022-08-05T20:01:27.176Z,1.17
2022-08-05T20:04:21.100Z,0.88
2022-08-05T20:06:50.808Z,1.00
2022-08-05T20:09:17.610Z,0.88
2022-08-05T20:11:48.033Z,1.00
2022-08-05T20:14:27.123Z,0.93
2022-08-05T20:17:09.234Z,0.98
2022-08-05T20:19:56.615Z,0.73
2022-08-05T20:22:31.788Z,0.80
2022-08-05T20:25:33.896Z,1.10
2022-08-05T20:28:16.863Z,1.30
2022-08-05T20:30:51.710Z,1.75
2022-08-05T20:33:18.165Z,1.40
2022-08-05T20:35:54.206Z,1.00
2022-08-05T20:38:27.159Z,0.90
2022-08-05T20:41:04.668Z,0.85
2022-08-05T20:43:58.789Z,0.88
2022-08-05T20:46:31.199Z,0.73
2022-08-05T20:48:58.358Z,0.77
2022-08-05T20:51:25.097Z,1.00
2022-08-05T20:53:56.208Z,0.90
2022-08-05T20:56:32.983Z,1.35
2022-08-05T20:59:14.068Z,0.90
2022-08-05T21:01:51.785Z,0.90
2022-08-05T21:04:19.013Z,0.90
2022-08-05T21:06:53.532Z,0.80
2022-08-05T21:09:22.131Z,0.80
2022-08-05T21:12:06.560Z,0.70
2022-08-05T21:14:35.986Z,1.00
2022-08-05T21:17:26.212Z,1.20
2022-08-05T21:19:55.115Z,0.80
2022-08-05T21:22:35.180Z,0.85
2022-08-05T21:25:02.136Z,0.90
2022-08-05T21:27:38.906Z,0.80
2022-08-05T21:30:06.577Z,1.05
2022-08-05T21:32:35.283Z,1.00
2022-08-05T21:35:09.134Z,1.00
2022-08-05T21:37:52.736Z,1.10
2022-08-05T21:40:23.154Z,1.00
2022-08-05T21:42:52.082Z,1.20
2022-08-05T21:45:25.012Z,1.35
2022-08-05T21:48:09.741Z,1.10
2022-08-05T21:50:56.355Z,1.80
2022-08-05T21:53:27.690Z,1.20
2022-08-05T21:56:04.732Z,1.40
2022-08-05T21:58:33.357Z,1.40
2022-08-05T22:01:04.683Z,1.20
2022-08-05T22:03:48.545Z,1.27
2022-08-05T22:06:39.675Z,1.02
2022-08-05T22:09:13.286Z,1.70
2022-08-05T22:11:41.809Z,1.02
2022-08-05T22:14:34.613Z,1.17
2022-08-05T22:17:00.191Z,1.30
2022-08-05T22:20:00.976Z,1.15
2022-08-05T22:22:28.211Z,0.73
2022-08-05T22:25:31.179Z,1.00
2022-08-05T22:28:46.624Z,0.90
2022-08-05T22:31:30.317Z,0.60
2022-08-05T22:34:01.363Z,0.90
2022-08-05T22:36:29.060Z,0.82
2022-08-05T22:39:09.391Z,0.70
2022-08-05T22:42:10.387Z,0.77
2022-08-05T22:44:53.648Z,0.83
2022-08-05T22:47:29.076Z,0.68
2022-08-05T22:50:17.874Z,1.20
2022-08-05T22:52:44.097Z,0.82
2022-08-05T22:55:19.197Z,0.82
2022-08-05T22:57:47.307Z,0.70
2022-08-05T23:00:18.428Z,1.15
2022-08-05T23:02:53.645Z,0.70
2022-08-05T23:05:36.183Z,0.95
2022-08-05T23:08:14.282Z,0.90
2022-08-05T23:10:41.758Z,0.70
2022-08-05T23:13:08.730Z,1.02
2022-08-05T23:16:00.284Z,1.27
2022-08-05T23:18:31.235Z,1.00
2022-08-05T23:21:42.891Z,1.00
2022-08-05T23:24:34.352Z,1.23
2022-08-05T23:27:01.101Z,0.80
2022-08-05T23:29:36.649Z,1.13
2022-08-05T23:32:13.566Z,0.93
2022-08-05T23:34:43.474Z,1.10
2022-08-05T23:37:36.569Z,0.80
2022-08-05T23:40:29.090Z,1.17
2022-08-05T23:42:58.848Z,0.88
2022-08-05T23:45:31.300Z,1.30
2022-08-05T23:48:05.027Z,0.90
2022-08-05T23:50:50.661Z,1.20
2022-08-05T23:53:46.421Z,0.80
2022-08-05T23:56:13.584Z,1.00
2022-08-05T23:58:55.082Z,0.98
